Time,TemperatureF,DewpointF,PressureIn,WindDirection,WindDirectionDegrees,WindSpeedMPH,WindSpeedGustMPH,Humidity,HourlyPrecipIn,Conditions,Clouds,dailyrainin,SolarRadiationWatts/m^2,SoftwareType,DateUTC
2013-08-27 00:00:00,74.5,66.1,29.96,WSW,258,0.0,0.0,75,0.00,,,0.00,0,Wunderground v.1.15,2013-08-27 04:00:00,
2013-08-27 00:10:00,74.5,66.1,29.96,WSW,248,0.0,0.0,75,0.00,,,0.00,0,Wunderground v.1.15,2013-08-27 04:10:00,
2013-08-27 00:20:00,74.2,65.8,29.96,WSW,247,0.0,0.0,75,0.00,,,0.00,0,Wunderground v.1.15,2013-08-27 04:20:00,
2013-08-27 00:30:00,74.2,65.8,29.96,WSW,242,1.0,1.0,75,0.00,,,0.00,0,Wunderground v.1.15,2013-08-27 04:30:00,
2013-08-27 00:40:00,74.3,65.5,29.95,West,259,0.0,0.0,74,0.00,,,0.00,0,Wunderground v.1.15,2013-08-27 04:40:00,
2013-08-27 00:50:00,74.6,65.4,29.96,West,260,0.0,0.0,73,0.00,,,0.00,0,Wunderground v.1.15,2013-08-27 04:50:00,
2013-08-27 01:00:00,74.6,65.8,29.96,West,260,0.0,0.0,74,0.00,,,0.00,0,Wunderground v.1.15,2013-08-27 05:00:00,
2013-08-27 01:10:00,74.1,65.7,29.96,West,260,0.0,1.0,75,0.00,,,0.00,0,Wunderground v.1.15,2013-08-27 05:10:00,
2013-08-27 01:20:00,74.0,65.6,29.96,West,261,1.0,3.0,75,0.00,,,0.00,0,Wunderground v.1.15,2013-08-27 05:20:00,
2013-08-27 01:30:00,74.2,65.8,29.95,WSW,252,2.0,3.0,75,0.00,,,0.00,0,Wunderground v.1.15,2013-08-27 05:30:00,
2013-08-27 01:40:00,75.2,65.9,29.95,West,259,1.0,1.0,73,0.00,,,0.00,0,Wunderground v.1.15,2013-08-27 05:40:00,
2013-08-27 01:50:00,75.9,65.4,29.95,WSW,250,1.0,1.0,70,0.00,,,0.00,0,Wunderground v.1.15,2013-08-27 05:50:00,
2013-08-27 02:00:00,76.1,65.6,29.94,West,259,0.0,0.0,70,0.00,,,0.00,0,Wunderground v.1.15,2013-08-27 06:00:00,
2013-08-27 02:10:00,76.1,65.6,29.94,West,265,0.0,0.0,70,0.00,,,0.00,0,Wunderground v.1.15,2013-08-27 06:10:00,
2013-08-27 02:20:00,76.0,65.5,29.94,West,263,0.0,0.0,70,0.00,,,0.00,0,Wunderground v.1.15,2013-08-27 06:20:00,
2013-08-27 02:30:00,75.8,66.1,29.94,West,264,0.0,0.0,72,0.00,,,0.00,0,Wunderground v.1.15,2013-08-27 06:30:00,
2013-08-27 02:40:00,75.1,65.9,29.94,WSW,258,0.0,0.0,73,0.00,,,0.00,0,Wunderground v.1.15,2013-08-27 06:40:00,
2013-08-27 02:50:00,74.6,65.8,29.93,WSW,253,0.0,0.0,74,0.00,,,0.00,0,Wunderground v.1.15,2013-08-27 06:50:00,
2013-08-27 03:00:00,74.7,65.9,29.93,West,259,0.0,0.0,74,0.00,,,0.00,0,Wunderground v.1.15,2013-08-27 07:00:00,
2013-08-27 03:10:00,74.8,65.6,29.94,West,265,1.0,1.0,73,0.00,,,0.00,0,Wunderground v.1.15,2013-08-27 07:10:00,
2013-08-27 03:20:00,74.8,66.0,29.94,WSW,252,0.0,0.0,74,0.00,,,0.00,0,Wunderground v.1.15,2013-08-27 07:20:00,
2013-08-27 03:30:00,74.6,65.8,29.93,WSW,255,0.0,0.0,74,0.00,,,0.00,0,Wunderground v.1.15,2013-08-27 07:30:00,
2013-08-27 03:40:00,74.1,65.7,29.93,WSW,257,0.0,0.0,75,0.00,,,0.00,0,Wunderground v.1.15,2013-08-27 07:40:00,
2013-08-27 03:50:00,73.5,65.8,29.93,WSW,257,0.0,0.0,77,0.00,,,0.00,0,Wunderground v.1.15,2013-08-27 07:50:00,
2013-08-27 04:00:00,73.0,66.1,29.92,WSW,257,0.0,0.0,79,0.00,,,0.00,0,Wunderground v.1.15,2013-08-27 08:00:00,
2013-08-27 04:10:00,73.4,66.1,29.91,WSW,251,0.0,0.0,78,0.00,,,0.00,0,Wunderground v.1.15,2013-08-27 08:10:00,
2013-08-27 04:20:00,73.6,66.3,29.92,WSW,253,0.0,0.0,78,0.00,,,0.00,0,Wunderground v.1.15,2013-08-27 08:20:00,
2013-08-27 04:30:00,73.5,66.2,29.92,WSW,253,0.0,0.0,78,0.00,,,0.00,0,Wunderground v.1.15,2013-08-27 08:30:00,
2013-08-27 04:40:00,72.5,66.0,29.92,WSW,253,0.0,0.0,80,0.00,,,0.00,0,Wunderground v.1.15,2013-08-27 08:40:00,
2013-08-27 04:50:00,72.1,66.3,29.92,WSW,253,0.0,0.0,82,0.00,,,0.00,0,Wunderground v.1.15,2013-08-27 08:50:00,
2013-08-27 05:00:00,72.3,66.1,29.92,WSW,252,0.0,2.0,81,0.00,,,0.00,0,Wunderground v.1.15,2013-08-27 09:00:00,
2013-08-27 05:10:00,73.0,66.8,29.91,WSW,253,0.0,0.0,81,0.00,,,0.00,0,Wunderground v.1.15,2013-08-27 09:10:00,
2013-08-27 05:20:00,73.7,67.1,29.91,WSW,257,1.0,2.0,80,0.00,,,0.00,0,Wunderground v.1.15,2013-08-27 09:20:00,
2013-08-27 05:30:00,73.9,67.0,29.91,WSW,257,0.0,0.0,79,0.00,,,0.00,0,Wunderground v.1.15,2013-08-27 09:30:00,
2013-08-27 05:40:00,74.0,67.1,29.92,WSW,257,0.0,1.0,79,0.00,,,0.00,0,Wunderground v.1.15,2013-08-27 09:40:00,
2013-08-27 05:50:00,74.0,67.1,29.92,WSW,257,0.0,0.0,79,0.00,,,0.00,0,Wunderground v.1.15,2013-08-27 09:50:00,
2013-08-27 06:00:00,74.2,67.3,29.92,WSW,257,0.0,0.0,79,0.00,,,0.00,0,Wunderground v.1.15,2013-08-27 10:00:00,
2013-08-27 06:10:00,74.1,67.2,29.92,WSW,257,0.0,0.0,79,0.00,,,0.00,0,Wunderground v.1.15,2013-08-27 10:10:00,
2013-08-27 06:20:00,73.9,67.3,29.92,WSW,257,0.0,0.0,80,0.00,,,0.00,0,Wunderground v.1.15,2013-08-27 10:20:00,
2013-08-27 06:30:00,73.7,67.1,29.92,WSW,257,0.0,0.0,80,0.00,,,0.00,0,Wunderground v.1.15,2013-08-27 10:30:00,
2013-08-27 06:40:00,72.6,67.1,29.93,WSW,257,0.0,0.0,83,0.00,,,0.00,0,Wunderground v.1.15,2013-08-27 10:40:00,
2013-08-27 06:50:00,72.1,67.0,29.93,WSW,257,0.0,0.0,84,0.00,,,0.00,5,Wunderground v.1.15,2013-08-27 10:50:00,
2013-08-27 07:00:00,71.7,66.9,29.93,WSW,257,0.0,0.0,85,0.00,,,0.00,11,Wunderground v.1.15,2013-08-27 11:00:00,
2013-08-27 07:10:00,72.3,67.2,29.93,WSW,257,0.0,0.0,84,0.00,,,0.00,30,Wunderground v.1.15,2013-08-27 11:10:00,
2013-08-27 07:20:00,72.7,67.6,29.93,WSW,257,0.0,0.0,84,0.00,,,0.00,44,Wunderground v.1.15,2013-08-27 11:20:00,
2013-08-27 07:30:00,73.3,68.2,29.93,WSW,257,0.0,0.0,84,0.00,,,0.00,79,Wunderground v.1.15,2013-08-27 11:30:00,
2013-08-27 07:40:00,74.2,68.7,29.92,WSW,255,0.0,0.0,83,0.00,,,0.00,104,Wunderground v.1.15,2013-08-27 11:40:00,
2013-08-27 07:50:00,75.1,68.5,29.93,WSW,251,1.0,1.0,80,0.00,,,0.00,130,Wunderground v.1.15,2013-08-27 11:50:00,
2013-08-27 08:00:00,75.8,68.8,29.92,WSW,252,1.0,2.0,79,0.00,,,0.00,162,Wunderground v.1.15,2013-08-27 12:00:00,
2013-08-27 08:10:00,76.5,69.1,29.93,West,262,1.0,1.0,78,0.00,,,0.00,190,Wunderground v.1.15,2013-08-27 12:10:00,
2013-08-27 08:20:00,77.1,69.3,29.93,West,259,1.0,1.0,77,0.00,,,0.00,223,Wunderground v.1.15,2013-08-27 12:20:00,
2013-08-27 08:30:00,77.6,69.8,29.92,West,260,1.0,1.0,77,0.00,,,0.00,250,Wunderground v.1.15,2013-08-27 12:30:00,
2013-08-27 08:40:00,78.0,70.2,29.92,West,262,2.0,2.0,77,0.00,,,0.00,274,Wunderground v.1.15,2013-08-27 12:40:00,
2013-08-27 08:50:00,78.7,70.5,29.92,West,267,1.0,1.0,76,0.00,,,0.00,295,Wunderground v.1.15,2013-08-27 12:50:00,
2013-08-27 09:00:00,79.4,71.2,29.93,West,266,0.0,1.0,76,0.00,,,0.00,350,Wunderground v.1.15,2013-08-27 13:00:00,
2013-08-27 09:10:00,80.1,71.8,29.92,West,273,0.0,0.0,76,0.00,,,0.00,360,Wunderground v.1.15,2013-08-27 13:10:00,
2013-08-27 09:20:00,81.1,71.6,29.92,West,276,0.0,1.0,73,0.00,,,0.00,392,Wunderground v.1.15,2013-08-27 13:20:00,
2013-08-27 09:30:00,80.7,70.8,29.92,West,273,2.0,2.0,72,0.00,,,0.00,200,Wunderground v.1.15,2013-08-27 13:30:00,
2013-08-27 09:40:00,80.4,70.9,29.92,West,274,2.0,2.0,73,0.00,,,0.00,353,Wunderground v.1.15,2013-08-27 13:40:00,
2013-08-27 09:50:00,81.2,71.3,29.92,WSW,241,2.0,5.0,72,0.00,,,0.00,566,Wunderground v.1.15,2013-08-27 13:50:00,
2013-08-27 10:00:00,82.0,72.1,29.92,West,261,1.0,1.0,72,0.00,,,0.00,534,Wunderground v.1.15,2013-08-27 14:00:00,
2013-08-27 10:10:00,82.0,72.1,29.93,West,266,2.0,5.0,72,0.00,,,0.00,464,Wunderground v.1.15,2013-08-27 14:10:00,
2013-08-27 10:20:00,81.9,72.0,29.93,West,265,2.0,3.0,72,0.00,,,0.00,248,Wunderground v.1.15,2013-08-27 14:20:00,
2013-08-27 10:30:00,82.0,72.1,29.93,WNW,282,1.0,2.0,72,0.00,,,0.00,230,Wunderground v.1.15,2013-08-27 14:30:00,
2013-08-27 10:40:00,81.3,71.4,29.93,West,276,2.0,2.0,72,0.00,,,0.00,285,Wunderground v.1.15,2013-08-27 14:40:00,
2013-08-27 10:50:00,81.6,72.1,29.92,WNW,284,1.0,4.0,73,0.00,,,0.00,279,Wunderground v.1.15,2013-08-27 14:50:00,
2013-08-27 11:00:00,82.1,72.2,29.92,West,275,1.0,3.0,72,0.00,,,0.00,376,Wunderground v.1.15,2013-08-27 15:00:00,
2013-08-27 11:10:00,83.4,72.2,29.92,NW,324,2.0,2.0,69,0.00,,,0.00,731,Wunderground v.1.15,2013-08-27 15:10:00,
2013-08-27 11:20:00,84.0,72.7,29.92,West,274,1.0,1.0,69,0.00,,,0.00,250,Wunderground v.1.15,2013-08-27 15:20:00,
2013-08-27 11:30:00,83.3,72.9,29.93,WSW,258,1.0,1.0,71,0.00,,,0.00,264,Wunderground v.1.15,2013-08-27 15:30:00,
2013-08-27 11:40:00,82.8,72.8,29.93,West,271,1.0,1.0,72,0.00,,,0.00,304,Wunderground v.1.15,2013-08-27 15:40:00,
2013-08-27 11:50:00,83.4,73.8,29.93,West,278,2.0,2.0,73,0.00,,,0.00,513,Wunderground v.1.15,2013-08-27 15:50:00,
2013-08-27 12:00:00,83.7,72.4,29.93,NW,323,1.0,3.0,69,0.00,,,0.00,819,Wunderground v.1.15,2013-08-27 16:00:00,
2013-08-27 12:10:00,84.1,72.8,29.92,West,265,1.0,3.0,69,0.00,,,0.00,782,Wunderground v.1.15,2013-08-27 16:10:00,
2013-08-27 12:20:00,84.5,73.2,29.93,West,271,2.0,3.0,69,0.00,,,0.00,323,Wunderground v.1.15,2013-08-27 16:20:00,
2013-08-27 12:30:00,84.3,73.0,29.92,WNW,300,2.0,2.0,69,0.00,,,0.00,427,Wunderground v.1.15,2013-08-27 16:30:00,
2013-08-27 12:40:00,84.2,73.3,29.92,West,276,2.0,2.0,70,0.00,,,0.00,629,Wunderground v.1.15,2013-08-27 16:40:00,
2013-08-27 12:50:00,84.5,72.8,29.91,West,265,2.0,3.0,68,0.00,,,0.00,341,Wunderground v.1.15,2013-08-27 16:50:00,
2013-08-27 13:00:00,84.6,72.9,29.91,WNW,283,2.0,3.0,68,0.00,,,0.00,863,Wunderground v.1.15,2013-08-27 17:00:00,
2013-08-27 13:10:00,84.9,72.7,29.91,North,5,1.0,1.0,67,0.00,,,0.00,202,Wunderground v.1.15,2013-08-27 17:10:00,
2013-08-27 13:20:00,84.1,74.5,29.90,West,268,1.0,1.0,73,0.00,,,0.00,302,Wunderground v.1.15,2013-08-27 17:20:00,
2013-08-27 13:30:00,84.8,72.6,29.90,WNW,300,0.0,0.0,67,0.00,,,0.00,346,Wunderground v.1.15,2013-08-27 17:30:00,
2013-08-27 13:40:00,85.7,73.0,29.90,NW,324,1.0,1.0,66,0.00,,,0.00,204,Wunderground v.1.15,2013-08-27 17:40:00,
2013-08-27 13:50:00,84.7,73.4,29.90,NNW,336,0.0,1.0,69,0.00,,,0.00,193,Wunderground v.1.15,2013-08-27 17:50:00,
2013-08-27 14:00:00,84.6,74.2,29.90,NNW,336,0.0,0.0,71,0.00,,,0.00,272,Wunderground v.1.15,2013-08-27 18:00:00,
2013-08-27 14:10:00,86.3,73.6,29.90,West,272,0.0,0.0,66,0.00,,,0.00,279,Wunderground v.1.15,2013-08-27 18:10:00,
2013-08-27 14:20:00,86.7,74.0,29.90,WNW,299,2.0,3.0,66,0.00,,,0.00,459,Wunderground v.1.15,2013-08-27 18:20:00,
2013-08-27 14:30:00,86.8,73.6,29.89,West,262,2.0,5.0,65,0.00,,,0.00,364,Wunderground v.1.15,2013-08-27 18:30:00,
2013-08-27 14:40:00,86.9,74.6,29.89,WSW,252,3.0,3.0,67,0.00,,,0.00,766,Wunderground v.1.15,2013-08-27 18:40:00,
2013-08-27 14:50:00,87.2,74.5,29.88,West,261,3.0,4.0,66,0.00,,,0.00,824,Wunderground v.1.15,2013-08-27 18:50:00,
2013-08-27 15:00:00,88.0,74.3,29.87,West,261,3.0,3.0,64,0.00,,,0.00,856,Wunderground v.1.15,2013-08-27 19:00:00,
2013-08-27 15:10:00,87.6,74.8,29.88,WSW,252,4.0,4.0,66,0.00,,,0.00,782,Wunderground v.1.15,2013-08-27 19:10:00,
2013-08-27 15:20:00,88.0,74.8,29.87,WSW,248,3.0,4.0,65,0.00,,,0.00,803,Wunderground v.1.15,2013-08-27 19:20:00,
2013-08-27 15:30:00,87.8,75.0,29.88,West,265,3.0,3.0,66,0.00,,,0.00,461,Wunderground v.1.15,2013-08-27 19:30:00,
2013-08-27 15:40:00,86.5,74.7,29.87,West,261,5.0,5.0,68,0.00,,,0.00,728,Wunderground v.1.15,2013-08-27 19:40:00,
2013-08-27 15:50:00,85.3,73.5,29.87,West,265,5.0,5.0,68,0.00,,,0.00,230,Wunderground v.1.15,2013-08-27 19:50:00,
2013-08-27 16:00:00,84.5,73.6,29.88,West,275,5.0,5.0,70,0.00,,,0.00,313,Wunderground v.1.15,2013-08-27 20:00:00,
2013-08-27 16:10:00,84.2,73.3,29.88,West,262,4.0,5.0,70,0.00,,,0.00,142,Wunderground v.1.15,2013-08-27 20:10:00,
2013-08-27 16:20:00,83.0,72.6,29.88,West,262,3.0,3.0,71,0.00,,,0.00,109,Wunderground v.1.15,2013-08-27 20:20:00,
2013-08-27 16:30:00,82.5,73.0,29.87,West,259,1.0,1.0,73,0.00,,,0.00,116,Wunderground v.1.15,2013-08-27 20:30:00,
2013-08-27 16:40:00,82.5,73.0,29.87,West,263,0.0,1.0,73,0.00,,,0.00,135,Wunderground v.1.15,2013-08-27 20:40:00,
2013-08-27 16:50:00,82.5,73.0,29.87,West,264,0.0,0.0,73,0.00,,,0.00,227,Wunderground v.1.15,2013-08-27 20:50:00,
2013-08-27 17:00:00,83.3,73.7,29.87,WSW,254,1.0,1.0,73,0.00,,,0.00,237,Wunderground v.1.15,2013-08-27 21:00:00,
2013-08-27 17:10:00,83.3,72.9,29.87,West,262,1.0,3.0,71,0.00,,,0.00,178,Wunderground v.1.15,2013-08-27 21:10:00,
2013-08-27 17:20:00,83.0,72.6,29.86,West,273,1.0,1.0,71,0.00,,,0.00,134,Wunderground v.1.15,2013-08-27 21:20:00,
2013-08-27 17:30:00,82.7,73.2,29.86,West,271,0.0,0.0,73,0.00,,,0.00,83,Wunderground v.1.15,2013-08-27 21:30:00,
2013-08-27 17:50:00,82.3,73.2,29.85,West,268,0.0,0.0,74,0.00,,,0.00,116,Wunderground v.1.15,2013-08-27 21:50:00,
2013-08-27 18:00:00,82.4,73.3,29.86,West,268,0.0,0.0,74,0.00,,,0.00,123,Wunderground v.1.15,2013-08-27 22:00:00,
2013-08-27 18:10:00,82.6,73.5,29.85,West,269,0.0,0.0,74,0.00,,,0.00,102,Wunderground v.1.15,2013-08-27 22:10:00,
2013-08-27 18:20:00,82.2,73.5,29.86,West,269,0.0,0.0,75,0.00,,,0.00,67,Wunderground v.1.15,2013-08-27 22:20:00,
2013-08-27 18:30:00,82.2,73.5,29.85,West,269,0.0,0.0,75,0.00,,,0.00,54,Wunderground v.1.15,2013-08-27 22:30:00,
2013-08-27 18:40:00,82.0,73.3,29.85,West,269,0.0,0.0,75,0.00,,,0.00,32,Wunderground v.1.15,2013-08-27 22:40:00,
2013-08-27 18:50:00,81.4,73.5,29.85,West,269,0.0,0.0,77,0.00,,,0.00,37,Wunderground v.1.15,2013-08-27 22:50:00,
2013-08-27 19:00:00,81.4,73.1,29.86,West,269,0.0,0.0,76,0.00,,,0.00,42,Wunderground v.1.15,2013-08-27 23:00:00,
2013-08-27 19:10:00,81.3,73.0,29.85,West,263,0.0,0.0,76,0.00,,,0.00,35,Wunderground v.1.15,2013-08-27 23:10:00,
2013-08-27 19:20:00,80.9,72.6,29.86,West,263,0.0,0.0,76,0.00,,,0.00,23,Wunderground v.1.15,2013-08-27 23:20:00,
2013-08-27 19:30:00,80.7,72.4,29.86,West,261,0.0,0.0,76,0.00,,,0.00,19,Wunderground v.1.15,2013-08-27 23:30:00,
2013-08-27 19:40:00,80.3,72.4,29.86,West,261,0.0,1.0,77,0.00,,,0.00,9,Wunderground v.1.15,2013-08-27 23:40:00,
2013-08-27 19:50:00,79.7,72.2,29.87,West,262,0.0,0.0,78,0.00,,,0.00,0,Wunderground v.1.15,2013-08-27 23:50:00,
2013-08-27 20:00:00,79.3,72.2,29.87,West,260,0.0,0.0,79,0.00,,,0.00,0,Wunderground v.1.15,2013-08-28 00:00:00,
2013-08-27 20:10:00,78.9,71.8,29.87,West,260,0.0,0.0,79,0.00,,,0.00,0,Wunderground v.1.15,2013-08-28 00:10:00,
2013-08-27 20:20:00,78.6,71.9,29.87,West,260,0.0,0.0,80,0.00,,,0.00,0,Wunderground v.1.15,2013-08-28 00:20:00,
2013-08-27 20:30:00,78.3,71.6,29.87,West,260,0.0,0.0,80,0.00,,,0.00,0,Wunderground v.1.15,2013-08-28 00:30:00,
2013-08-27 20:40:00,78.1,71.4,29.87,West,260,0.0,0.0,80,0.00,,,0.00,0,Wunderground v.1.15,2013-08-28 00:40:00,
2013-08-27 20:50:00,78.0,71.3,29.87,West,260,0.0,0.0,80,0.00,,,0.00,0,Wunderground v.1.15,2013-08-28 00:50:00,
2013-08-27 21:00:00,77.6,70.9,29.87,West,260,0.0,0.0,80,0.00,,,0.00,0,Wunderground v.1.15,2013-08-28 01:00:00,
2013-08-27 21:10:00,76.4,70.9,29.88,West,260,0.0,0.0,83,0.00,,,0.00,0,Wunderground v.1.15,2013-08-28 01:10:00,
2013-08-27 21:20:00,75.9,70.7,29.89,West,260,0.0,0.0,84,0.00,,,0.00,0,Wunderground v.1.15,2013-08-28 01:20:00,
2013-08-27 21:30:00,75.3,70.5,29.89,West,260,0.0,0.0,85,0.00,,,0.00,0,Wunderground v.1.15,2013-08-28 01:30:00,
2013-08-27 21:50:00,75.2,70.7,29.89,West,260,0.0,0.0,86,0.00,,,0.00,0,Wunderground v.1.15,2013-08-28 01:50:00,
2013-08-27 22:00:00,75.5,70.7,29.89,West,260,0.0,0.0,85,0.00,,,0.00,0,Wunderground v.1.15,2013-08-28 02:00:00,
2013-08-27 22:10:00,75.5,70.7,29.89,West,260,0.0,0.0,85,0.00,,,0.00,0,Wunderground v.1.15,2013-08-28 02:10:00,
2013-08-27 22:20:00,76.2,70.3,29.89,West,260,0.0,0.0,82,0.00,,,0.00,0,Wunderground v.1.15,2013-08-28 02:20:00,
2013-08-27 22:30:00,76.4,70.5,29.89,West,260,0.0,0.0,82,0.00,,,0.00,0,Wunderground v.1.15,2013-08-28 02:30:00,
2013-08-27 22:40:00,75.8,69.9,29.89,West,260,0.0,0.0,82,0.00,,,0.00,0,Wunderground v.1.15,2013-08-28 02:40:00,
2013-08-27 23:00:00,74.9,70.1,29.89,West,260,0.0,0.0,85,0.00,,,0.00,0,Wunderground v.1.15,2013-08-28 03:00:00,
2013-08-27 23:10:00,74.5,69.7,29.89,West,260,0.0,0.0,85,0.00,,,0.00,0,Wunderground v.1.15,2013-08-28 03:10:00,
2013-08-27 23:20:00,73.0,69.2,29.89,West,260,0.0,0.0,88,0.00,,,0.00,0,Wunderground v.1.15,2013-08-28 03:20:00,
2013-08-27 23:30:00,72.7,69.3,29.90,West,260,0.0,0.0,89,0.00,,,0.00,0,Wunderground v.1.15,2013-08-28 03:30:00,
2013-08-27 23:40:00,72.6,69.2,29.90,West,259,0.0,0.0,89,0.00,,,0.00,0,Wunderground v.1.15,2013-08-28 03:40:00,
2013-08-27 23:50:00,71.7,68.3,29.89,West,259,0.0,0.0,89,0.00,,,0.00,0,Wunderground v.1.15,2013-08-28 03:50:00,